Aviation Digital Data Service (ADDS)

Output produced by METARs form (0426 UTC 03 September 2015)
found at http://aviationweather.gov/adds/metars/
 
KJST 030322Z 0303/0324 28006KT P6SM SKC 
     FM030800 VRB03KT 4SM BR SKC 
     FM031500 16005KT P6SM SCT250